Time;durP1;ratioP1;P1;durP2;ratioP2;P2;SDS_P1;SDS_P2;PMS_P1;PMS_P2;Temp;Humidity;BMP_temperature;BMP_pressure;BME280_temperature;BME280_humidity;BME280_pressure;Samples;Min_cycle;Max_cycle;Signal;HPM_P1;HPM_P2
2021/06/18 00:00:57;;;;;;;11.43;10.33;;;24.50;73.80;;;;;;6186026;23;20410;-89
2021/06/18 00:03:24;;;;;;;13.20;10.00;;;24.40;74.60;;;;;;6185597;23;20388;-88
2021/06/18 00:05:52;;;;;;;10.90;9.77;;;24.30;74.80;;;;;;6185535;23;20409;-88
2021/06/18 00:08:19;;;;;;;12.93;10.03;;;24.40;74.90;;;;;;6185076;23;20425;-87
2021/06/18 00:10:46;;;;;;;11.77;10.10;;;24.40;74.30;;;;;;6185969;23;20456;-88
2021/06/18 00:13:12;;;;;;;12.53;10.63;;;24.40;74.20;;;;;;6192970;23;20710;-88
2021/06/18 00:15:39;;;;;;;15.73;9.83;;;24.40;73.70;;;;;;6203333;23;20402;-88
2021/06/18 00:18:06;;;;;;;12.80;10.43;;;24.40;73.20;;;;;;6195420;23;20424;-88
2021/06/18 00:20:33;;;;;;;10.83;9.73;;;24.40;73.00;;;;;;6191550;23;20410;-88
2021/06/18 00:23:01;;;;;;;11.97;9.87;;;24.30;73.50;;;;;;6202274;23;20389;-89
2021/06/18 00:25:28;;;;;;;12.40;9.47;;;24.20;74.10;;;;;;6213675;23;20444;-88
2021/06/18 00:27:56;;;;;;;12.30;10.70;;;24.10;74.50;;;;;;6202428;23;20460;-88
2021/06/18 00:30:24;;;;;;;10.93;9.83;;;24.10;74.60;;;;;;6199738;23;20440;-88
2021/06/18 00:32:51;;;;;;;11.00;9.90;;;24.00;74.10;;;;;;6190599;23;20470;-89
2021/06/18 00:35:17;;;;;;;13.60;10.23;;;24.00;73.60;;;;;;6187658;23;20413;-88
2021/06/18 00:37:44;;;;;;;15.63;12.00;;;23.80;74.00;;;;;;6186883;23;20492;-88
2021/06/18 00:40:13;;;;;;;16.30;12.73;;;23.80;74.40;;;;;;6187402;23;20400;-88
2021/06/18 00:42:39;;;;;;;15.53;13.53;;;23.80;75.10;;;;;;6186911;23;20405;-88
2021/06/18 00:45:07;;;;;;;18.30;11.13;;;23.70;75.10;;;;;;6185943;23;20411;-88
2021/06/18 00:47:36;;;;;;;13.10;10.80;;;23.60;74.90;;;;;;6192169;23;20487;-88
2021/06/18 00:50:03;;;;;;;13.60;10.60;;;23.60;75.10;;;;;;6185327;23;20462;-87
2021/06/18 00:52:31;;;;;;;12.47;11.10;;;23.60;75.40;;;;;;6185448;23;20785;-88
2021/06/18 00:54:58;;;;;;;14.23;10.87;;;23.60;75.50;;;;;;6184820;23;20408;-87
2021/06/18 00:57:27;;;;;;;13.50;11.60;;;23.60;75.80;;;;;;6185464;23;20792;-88
2021/06/18 00:59:53;;;;;;;13.37;10.40;;;23.60;76.20;;;;;;6185680;23;20410;-88
2021/06/18 01:02:20;;;;;;;12.73;10.87;;;23.60;76.40;;;;;;6187491;23;20408;-88
2021/06/18 01:04:47;;;;;;;11.90;10.60;;;23.50;76.40;;;;;;6211652;23;20410;-90
2021/06/18 01:07:18;;;;;;;11.47;10.30;;;23.50;76.80;;;;;;6195686;23;20422;-89
2021/06/18 01:09:58;;;;;;;11.63;9.77;;;23.50;76.90;;;;;;6201433;23;20487;-88
2021/06/18 01:12:27;;;;;;;11.57;10.37;;;23.30;77.30;;;;;;6185296;23;20410;-88
2021/06/18 01:15:03;;;;;;;12.73;10.50;;;23.30;77.90;;;;;;6185181;23;20407;-88
2021/06/18 01:17:36;;;;;;;10.90;9.37;;;23.20;78.50;;;;;;6184485;23;20431;-88
2021/06/18 01:20:21;;;;;;;12.17;10.97;;;23.20;78.90;;;;;;6185171;23;20701;-88
2021/06/18 01:22:51;;;;;;;13.00;11.40;;;23.20;78.90;;;;;;6185256;23;20715;-88
2021/06/18 01:25:25;;;;;;;12.27;11.07;;;23.10;78.90;;;;;;6186084;23;20432;-88
2021/06/18 01:28:00;;;;;;;12.23;11.03;;;23.00;79.00;;;;;;6185602;23;20481;-88
2021/06/18 01:30:30;;;;;;;13.90;11.20;;;23.00;79.40;;;;;;6184921;23;20726;-88
2021/06/18 01:33:01;;;;;;;13.83;12.50;;;23.00;79.80;;;;;;6185392;23;20387;-88
2021/06/18 01:35:32;;;;;;;12.27;11.00;;;22.90;79.90;;;;;;6185171;23;20393;-88
2021/06/18 01:38:01;;;;;;;12.30;11.10;;;22.90;80.10;;;;;;6200394;23;20436;-88
2021/06/18 01:40:29;;;;;;;11.53;10.43;;;23.00;80.30;;;;;;6205183;23;20438;-88
2021/06/18 01:42:57;;;;;;;12.30;11.20;;;23.00;80.40;;;;;;6189478;23;20410;-88
2021/06/18 01:45:26;;;;;;;12.93;11.63;;;22.90;80.90;;;;;;6191153;23;20410;-90
2021/06/18 01:47:56;;;;;;;13.83;11.40;;;22.80;81.40;;;;;;6212194;23;20423;-91
2021/06/18 01:50:26;;;;;;;12.57;11.23;;;22.80;81.80;;;;;;6188020;23;20394;-88
2021/06/18 01:52:58;;;;;;;14.77;13.27;;;22.80;82.20;;;;;;6185220;23;20445;-88
2021/06/18 01:55:26;;;;;;;16.37;12.03;;;22.80;82.40;;;;;;6184846;23;20391;-88
2021/06/18 01:57:56;;;;;;;13.90;11.50;;;22.70;82.70;;;;;;6184545;23;20941;-88
2021/06/18 02:00:24;;;;;;;13.73;12.33;;;22.70;83.60;;;;;;6185096;23;20394;-88
2021/06/18 02:02:51;;;;;;;13.27;11.87;;;22.50;84.00;;;;;;6186183;23;20414;-86
2021/06/18 02:05:21;;;;;;;13.53;11.23;;;22.50;84.50;;;;;;6185032;23;20410;-86
2021/06/18 02:07:50;;;;;;;12.83;11.53;;;22.50;84.80;;;;;;6184735;23;20443;-86
2021/06/18 02:10:18;;;;;;;16.27;11.43;;;22.40;85.00;;;;;;6186896;23;20405;-86
2021/06/18 02:12:47;;;;;;;12.03;10.83;;;22.40;85.80;;;;;;6196448;23;20408;-85
2021/06/18 02:15:17;;;;;;;14.33;12.93;;;22.40;85.90;;;;;;6187917;23;20738;-86
2021/06/18 02:17:44;;;;;;;13.57;12.17;;;22.40;85.70;;;;;;6184055;23;20509;-86
2021/06/18 02:20:13;;;;;;;14.60;13.17;;;22.40;85.40;;;;;;6184355;23;20390;-86
2021/06/18 02:22:42;;;;;;;18.67;14.13;;;22.30;86.00;;;;;;6193470;23;20401;-86
2021/06/18 02:25:10;;;;;;;15.83;13.83;;;22.30;86.40;;;;;;6213205;23;20464;-87
2021/06/18 02:27:40;;;;;;;14.00;12.40;;;22.20;86.20;;;;;;6206556;23;20464;-86
2021/06/18 02:30:09;;;;;;;14.00;12.50;;;22.30;86.50;;;;;;6194069;23;20393;-85
2021/06/18 02:32:38;;;;;;;16.60;12.10;;;22.20;86.90;;;;;;6210106;23;20398;-91
2021/06/18 02:35:06;;;;;;;11.23;10.23;;;22.20;87.30;;;;;;6190638;23;20416;-91
2021/06/18 02:37:33;;;;;;;11.63;10.27;;;22.10;87.50;;;;;;6193760;23;20524;-92
2021/06/18 02:40:06;;;;;;;11.47;10.20;;;22.10;88.40;;;;;;6191123;23;20432;-92
2021/06/18 02:42:33;;;;;;;11.73;10.63;;;22.00;88.80;;;;;;6197520;23;20444;-91
2021/06/18 02:45:02;;;;;;;11.33;10.30;;;22.00;89.00;;;;;;6201717;23;20412;-92
2021/06/18 02:47:34;;;;;;;10.90;9.87;;;22.00;89.30;;;;;;6191390;23;20422;-92
2021/06/18 02:50:07;;;;;;;12.53;11.27;;;22.00;89.10;;;;;;6192127;23;20383;-92
2021/06/18 02:52:42;;;;;;;13.17;10.77;;;21.90;89.80;;;;;;6189892;23;20408;-91
2021/06/18 02:55:24;;;;;;;11.93;10.80;;;21.90;90.00;;;;;;6204582;23;20405;-91
2021/06/18 02:58:08;;;;;;;12.83;11.60;;;21.90;90.00;;;;;;6207007;23;20436;-91
2021/06/18 03:00:38;;;;;;;17.40;10.83;;;21.70;90.10;;;;;;6206657;23;20394;-91
2021/06/18 03:03:09;;;;;;;11.37;10.30;;;21.60;90.40;;;;;;6205656;23;20381;-91
2021/06/18 03:05:37;;;;;;;10.70;9.60;;;21.50;90.70;;;;;;6205262;23;20401;-91
2021/06/18 03:08:09;;;;;;;10.90;9.90;;;21.40;90.90;;;;;;6200707;23;20627;-92
2021/06/18 03:10:40;;;;;;;14.50;11.43;;;21.50;91.10;;;;;;6204940;23;20455;-91
2021/06/18 03:13:11;;;;;;;11.90;10.70;;;21.60;91.10;;;;;;6196263;23;20473;-91
2021/06/18 03:15:44;;;;;;;12.60;11.40;;;21.60;91.00;;;;;;6200140;23;20417;-92
2021/06/18 03:18:16;;;;;;;10.77;9.87;;;21.70;91.00;;;;;;6194913;23;20436;-91
2021/06/18 03:20:47;;;;;;;11.07;10.07;;;21.80;90.80;;;;;;6195110;23;20468;-92
2021/06/18 03:23:19;;;;;;;9.87;8.90;;;21.70;90.60;;;;;;6199103;23;20946;-90
2021/06/18 03:25:48;;;;;;;12.87;11.10;;;21.80;90.70;;;;;;6213525;23;20394;-91
2021/06/18 03:28:16;;;;;;;10.77;9.73;;;21.90;90.40;;;;;;6207169;23;20435;-91
2021/06/18 03:30:46;;;;;;;10.73;9.10;;;22.00;90.50;;;;;;6192257;23;20497;-92
2021/06/18 03:33:16;;;;;;;10.67;9.60;;;21.90;90.50;;;;;;6192244;23;20434;-92
2021/06/18 03:35:47;;;;;;;11.07;9.70;;;22.00;90.40;;;;;;6189853;23;20504;-91
2021/06/18 03:38:19;;;;;;;10.63;9.63;;;22.10;90.40;;;;;;6193728;23;20437;-92
2021/06/18 03:40:50;;;;;;;11.60;9.30;;;21.90;90.40;;;;;;6191466;23;20433;-91
2021/06/18 03:43:17;;;;;;;13.27;9.80;;;21.90;90.40;;;;;;6194185;23;20429;-93
2021/06/18 03:45:48;;;;;;;12.23;11.17;;;21.90;90.70;;;;;;6191424;23;20398;-92
2021/06/18 03:48:17;;;;;;;10.83;9.60;;;21.70;90.70;;;;;;6193712;23;20410;-91
2021/06/18 03:50:44;;;;;;;10.20;9.30;;;21.70;91.40;;;;;;6190283;23;20438;-91
2021/06/18 03:53:16;;;;;;;13.20;10.40;;;21.70;90.90;;;;;;6189856;23;20879;-91
2021/06/18 03:55:50;;;;;;;11.87;10.73;;;21.70;90.90;;;;;;6189880;23;20485;-92
2021/06/18 03:58:20;;;;;;;12.00;10.90;;;21.70;91.00;;;;;;6191017;23;20892;-92
2021/06/18 04:00:52;;;;;;;12.30;10.50;;;21.70;91.30;;;;;;6205868;23;20404;-90
2021/06/18 04:03:27;;;;;;;10.77;9.40;;;21.60;91.40;;;;;;6213820;23;20406;-90
2021/06/18 04:06:01;;;;;;;11.33;10.13;;;21.70;91.60;;;;;;6191330;23;20427;-92
2021/06/18 04:08:31;;;;;;;16.10;11.00;;;21.80;91.50;;;;;;6190144;23;20417;-91
2021/06/18 04:11:03;;;;;;;14.53;10.70;;;21.80;91.40;;;;;;6190772;23;20448;-91
2021/06/18 04:13:31;;;;;;;12.40;10.90;;;21.80;91.60;;;;;;6201226;23;20405;-91
2021/06/18 04:16:01;;;;;;;11.30;10.30;;;21.90;91.40;;;;;;6207647;23;20383;-91
2021/06/18 04:18:31;;;;;;;11.53;9.67;;;21.90;91.40;;;;;;6207775;23;20429;-91
2021/06/18 04:20:59;;;;;;;15.70;9.93;;;22.10;91.30;;;;;;6202359;23;20426;-91
2021/06/18 04:23:29;;;;;;;11.70;9.90;;;22.10;90.90;;;;;;6213734;23;20401;-92
2021/06/18 04:25:56;;;;;;;15.40;11.10;;;22.30;90.70;;;;;;6193634;23;20469;-91
2021/06/18 04:28:25;;;;;;;11.63;10.60;;;22.30;90.80;;;;;;6213077;23;20560;-89
2021/06/18 04:30:52;;;;;;;11.60;10.50;;;22.40;90.40;;;;;;6231704;23;20454;-90
2021/06/18 04:33:19;;;;;;;11.90;10.70;;;22.40;90.10;;;;;;6227964;23;20405;-89
2021/06/18 04:35:46;;;;;;;11.90;9.97;;;22.40;90.10;;;;;;6225655;23;20432;-90
2021/06/18 04:38:14;;;;;;;11.93;10.73;;;22.30;90.20;;;;;;6202874;23;20508;-89
2021/06/18 04:40:41;;;;;;;9.90;9.00;;;22.30;90.00;;;;;;6209331;23;20393;-90
2021/06/18 04:43:08;;;;;;;12.03;11.03;;;22.30;90.30;;;;;;6207691;23;20442;-90
2021/06/18 04:45:36;;;;;;;11.40;10.30;;;22.40;90.40;;;;;;6209722;23;20420;-89
2021/06/18 04:48:04;;;;;;;13.83;11.00;;;22.30;90.30;;;;;;6192609;23;20442;-90
2021/06/18 04:50:31;;;;;;;11.97;10.77;;;22.40;90.30;;;;;;6199120;23;20391;-90
2021/06/18 04:53:00;;;;;;;14.17;12.57;;;22.50;90.30;;;;;;6189375;23;20481;-90
2021/06/18 04:55:27;;;;;;;16.23;13.00;;;22.60;89.60;;;;;;6190214;23;20413;-90
2021/06/18 04:57:54;;;;;;;17.13;11.80;;;22.50;90.10;;;;;;6189498;23;20501;-89
2021/06/18 05:00:24;;;;;;;16.90;12.47;;;22.60;90.30;;;;;;6194940;23;20414;-90
2021/06/18 05:02:53;;;;;;;14.93;11.67;;;22.60;90.20;;;;;;6193638;23;20513;-89
2021/06/18 05:05:21;;;;;;;17.53;13.43;;;22.60;90.20;;;;;;6192523;23;20421;-90
2021/06/18 05:07:52;;;;;;;16.27;13.17;;;22.70;90.00;;;;;;6191485;23;20987;-90
2021/06/18 05:10:19;;;;;;;15.10;13.10;;;22.70;90.00;;;;;;6186155;23;20410;-89
2021/06/18 05:12:46;;;;;;;22.23;14.90;;;22.70;90.40;;;;;;6187650;23;20397;-89
2021/06/18 05:15:14;;;;;;;16.80;15.10;;;22.80;90.10;;;;;;6193569;23;20553;-89
2021/06/18 05:17:41;;;;;;;23.00;17.60;;;22.80;90.00;;;;;;6203709;23;20435;-89
2021/06/18 05:20:12;;;;;;;20.67;18.50;;;22.90;90.10;;;;;;6203208;23;20715;-84
2021/06/18 05:22:39;;;;;;;17.80;15.93;;;23.00;90.50;;;;;;6195454;23;20423;-85
2021/06/18 05:25:06;;;;;;;16.10;14.67;;;23.60;89.40;;;;;;6190663;23;20400;-85
2021/06/18 05:27:33;;;;;;;15.23;13.80;;;24.20;86.80;;;;;;6197730;23;20440;-85
2021/06/18 05:30:00;;;;;;;19.60;15.77;;;24.80;83.70;;;;;;6195720;23;20406;-85
2021/06/18 05:32:27;;;;;;;14.27;12.80;;;25.40;82.00;;;;;;6193560;23;20408;-85
2021/06/18 05:34:53;;;;;;;14.53;12.87;;;26.00;80.20;;;;;;6185323;23;20408;-85
2021/06/18 05:37:21;;;;;;;15.73;13.80;;;26.50;77.70;;;;;;6186022;23;20437;-84
2021/06/18 05:39:48;;;;;;;15.63;14.00;;;27.00;75.30;;;;;;6189082;23;20417;-84
2021/06/18 05:42:15;;;;;;;18.90;17.00;;;27.30;71.90;;;;;;6192476;23;20437;-84
2021/06/18 05:44:42;;;;;;;16.00;14.50;;;27.60;71.00;;;;;;6191582;23;20440;-83
2021/06/18 05:47:09;;;;;;;19.03;15.40;;;28.00;69.30;;;;;;6190634;23;20436;-84
2021/06/18 05:49:36;;;;;;;17.07;15.37;;;28.30;67.70;;;;;;6204023;23;20461;-82
2021/06/18 05:52:03;;;;;;;17.10;14.90;;;28.80;66.90;;;;;;6204492;23;20394;-83
2021/06/18 05:54:31;;;;;;;15.27;13.00;;;29.30;65.40;;;;;;6196551;23;20417;-84
2021/06/18 05:56:57;;;;;;;15.67;12.30;;;29.70;61.20;;;;;;6193708;23;20462;-85
2021/06/18 05:59:24;;;;;;;12.00;10.00;;;30.00;60.90;;;;;;6194981;23;20429;-84
2021/06/18 06:01:51;;;;;;;20.10;11.37;;;30.40;60.00;;;;;;6205724;23;20456;-83
2021/06/18 06:04:18;;;;;;;13.33;10.73;;;30.80;59.40;;;;;;6206860;23;20409;-82
2021/06/18 06:06:45;;;;;;;11.50;10.30;;;30.90;58.20;;;;;;6207080;23;20410;-84
2021/06/18 06:09:12;;;;;;;13.63;10.00;;;31.00;57.80;;;;;;6204195;23;20421;-84
2021/06/18 06:11:40;;;;;;;13.13;10.00;;;31.00;57.30;;;;;;6197884;23;20402;-84
2021/06/18 06:14:06;;;;;;;11.47;9.63;;;31.20;57.30;;;;;;6195854;23;20884;-84
2021/06/18 06:16:35;;;;;;;11.60;10.10;;;31.40;56.50;;;;;;6194805;23;20409;-83
2021/06/18 06:19:02;;;;;;;12.73;10.07;;;31.60;56.20;;;;;;6194145;23;20430;-83
2021/06/18 06:21:29;;;;;;;13.53;9.57;;;31.50;55.80;;;;;;6193240;23;20406;-83
2021/06/18 06:23:56;;;;;;;21.03;11.30;;;31.50;56.00;;;;;;6195127;23;20392;-83
2021/06/18 06:26:23;;;;;;;11.50;10.30;;;31.60;56.10;;;;;;6194747;23;20412;-85
2021/06/18 06:28:51;;;;;;;12.93;10.83;;;31.90;55.20;;;;;;6204949;23;20429;-83
2021/06/18 06:31:19;;;;;;;21.30;10.97;;;31.70;55.00;;;;;;6200430;23;20448;-84
2021/06/18 06:33:46;;;;;;;13.13;10.17;;;31.90;54.80;;;;;;6205536;23;20394;-84
2021/06/18 06:36:12;;;;;;;11.53;10.30;;;31.90;54.70;;;;;;6197791;23;20413;-83
2021/06/18 06:38:39;;;;;;;10.97;9.70;;;32.00;54.70;;;;;;6202345;23;20477;-83
2021/06/18 06:41:07;;;;;;;16.33;10.47;;;32.50;53.70;;;;;;6202642;23;20417;-84
2021/06/18 06:43:33;;;;;;;11.47;10.27;;;32.40;53.70;;;;;;6200269;23;20469;-84
2021/06/18 06:46:02;;;;;;;13.57;10.27;;;32.30;54.20;;;;;;6199393;23;20401;-84
2021/06/18 06:48:28;;;;;;;13.10;10.77;;;32.50;54.00;;;;;;6194605;23;20441;-84
2021/06/18 06:50:55;;;;;;;11.50;10.30;;;32.80;53.40;;;;;;6198114;23;20412;-86
2021/06/18 06:53:22;;;;;;;13.60;9.30;;;33.00;52.30;;;;;;6206360;23;20412;-86
2021/06/18 06:55:49;;;;;;;11.20;10.10;;;33.20;51.70;;;;;;6196939;23;20402;-86
2021/06/18 06:58:17;;;;;;;13.20;9.30;;;33.40;51.60;;;;;;6190763;23;20428;-87
2021/06/18 07:00:44;;;;;;;16.83;8.77;;;34.00;50.60;;;;;;6190637;23;20421;-87
2021/06/18 07:03:12;;;;;;;9.60;8.70;;;34.40;49.60;;;;;;6206474;23;20438;-86
2021/06/18 07:05:38;;;;;;;11.83;9.47;;;34.50;49.20;;;;;;6213404;23;20417;-86
2021/06/18 07:08:15;;;;;;;10.83;9.10;;;34.70;49.20;;;;;;6213091;23;20430;-85
2021/06/18 07:10:42;;;;;;;12.57;8.70;;;34.70;48.30;;;;;;6205966;23;20412;-86
2021/06/18 07:13:09;;;;;;;9.10;7.17;;;35.10;47.80;;;;;;6210803;23;20385;-85
2021/06/18 07:15:35;;;;;;;15.13;9.90;;;35.40;46.60;;;;;;6212868;23;20412;-85
2021/06/18 07:18:02;;;;;;;12.00;8.63;;;35.60;46.70;;;;;;6212597;23;20432;-85
2021/06/18 07:20:31;;;;;;;9.17;8.27;;;35.40;46.30;;;;;;6197561;23;20406;-85
2021/06/18 07:22:57;;;;;;;10.70;8.60;;;35.40;46.20;;;;;;6192051;23;20464;-85
2021/06/18 07:25:24;;;;;;;11.80;8.37;;;35.30;46.70;;;;;;6190414;23;20405;-86
2021/06/18 07:27:51;;;;;;;11.13;8.70;;;35.20;46.60;;;;;;6191148;23;20433;-85
2021/06/18 07:30:19;;;;;;;12.03;8.27;;;35.70;45.70;;;;;;6199047;23;20424;-86
2021/06/18 07:32:46;;;;;;;11.47;8.27;;;36.10;45.50;;;;;;6198175;23;20406;-86
2021/06/18 07:35:12;;;;;;;9.37;7.93;;;36.60;44.20;;;;;;6193069;23;20416;-86
2021/06/18 07:37:43;;;;;;;11.47;8.03;;;36.60;43.50;;;;;;6189967;23;20576;-86
2021/06/18 07:40:12;;;;;;;10.20;7.63;;;36.40;43.90;;;;;;6191463;23;20780;-86
2021/06/18 07:42:39;;;;;;;11.43;7.93;;;37.10;43.80;;;;;;6189542;23;20512;-87
2021/06/18 07:45:07;;;;;;;8.13;7.37;;;37.60;41.90;;;;;;6188472;23;20404;-86
2021/06/18 07:47:33;;;;;;;14.67;7.77;;;37.40;41.70;;;;;;6187282;23;20431;-86
2021/06/18 07:50:00;;;;;;;8.47;7.40;;;37.90;41.70;;;;;;6187003;23;20492;-86
2021/06/18 07:52:27;;;;;;;9.23;7.70;;;38.00;41.00;;;;;;6187044;23;20408;-86
2021/06/18 07:54:58;;;;;;;8.50;7.60;;;38.00;41.90;;;;;;6186916;23;20759;-86
2021/06/18 07:57:25;;;;;;;7.73;7.00;;;38.00;41.30;;;;;;6188297;23;20484;-86
2021/06/18 07:59:51;;;;;;;11.37;7.77;;;37.60;41.40;;;;;;6187373;23;20401;-87
2021/06/18 08:02:19;;;;;;;9.93;6.93;;;37.80;41.70;;;;;;6189021;23;20437;-86
2021/06/18 08:04:45;;;;;;;8.67;7.20;;;37.50;41.50;;;;;;6190345;23;20912;-86
2021/06/18 08:07:12;;;;;;;8.67;7.33;;;36.90;41.70;;;;;;6186797;23;20414;-86
2021/06/18 08:09:39;;;;;;;9.60;7.80;;;36.70;42.70;;;;;;6196291;23;20416;-86
2021/06/18 08:12:09;;;;;;;10.80;6.23;;;37.20;41.70;;;;;;6188573;23;20908;-86
2021/06/18 08:14:35;;;;;;;8.00;7.30;;;37.60;41.30;;;;;;6202315;23;20398;-85
2021/06/18 08:17:03;;;;;;;10.87;8.17;;;37.80;41.40;;;;;;6205008;23;20410;-86
2021/06/18 08:19:29;;;;;;;10.17;8.40;;;38.00;40.90;;;;;;6201115;23;20454;-86
2021/06/18 08:21:56;;;;;;;10.20;8.73;;;38.20;40.50;;;;;;6191346;23;20410;-86
2021/06/18 08:24:23;;;;;;;10.40;8.10;;;38.30;40.60;;;;;;6189238;23;20445;-85
2021/06/18 08:26:50;;;;;;;8.67;7.70;;;38.60;39.50;;;;;;6188684;23;20406;-86
2021/06/18 08:29:18;;;;;;;9.43;7.90;;;38.50;39.80;;;;;;6187918;23;20857;-86
2021/06/18 08:31:45;;;;;;;12.67;8.97;;;38.90;39.70;;;;;;6188155;23;20401;-86
2021/06/18 08:34:12;;;;;;;8.63;7.57;;;39.50;38.70;;;;;;6196791;23;20396;-88
2021/06/18 08:36:39;;;;;;;7.30;6.60;;;38.90;38.70;;;;;;6186894;23;20420;-86
2021/06/18 08:39:07;;;;;;;8.43;7.00;;;39.20;38.30;;;;;;6188171;23;20425;-86
2021/06/18 08:41:33;;;;;;;8.30;7.17;;;39.50;38.50;;;;;;6186139;23;20417;-86
2021/06/18 08:44:00;;;;;;;8.00;7.20;;;39.90;37.60;;;;;;6186683;23;20447;-86
2021/06/18 08:46:28;;;;;;;8.57;7.70;;;39.30;38.00;;;;;;6187016;23;20390;-86
2021/06/18 08:48:55;;;;;;;10.37;7.93;;;40.30;37.20;;;;;;6191559;23;20798;-86
2021/06/18 08:51:22;;;;;;;8.87;7.97;;;41.20;36.00;;;;;;6199997;23;20402;-86
2021/06/18 08:53:49;;;;;;;9.10;7.90;;;41.40;36.30;;;;;;6191079;23;20412;-86
2021/06/18 08:56:16;;;;;;;10.53;7.20;;;40.50;36.60;;;;;;6186970;23;20707;-86
2021/06/18 08:58:42;;;;;;;8.60;7.37;;;40.90;36.50;;;;;;6195896;23;20429;-86
2021/06/18 09:01:10;;;;;;;9.37;7.97;;;40.50;36.10;;;;;;6209644;23;20408;-86
2021/06/18 09:03:43;;;;;;;9.13;6.83;;;41.00;35.90;;;;;;6194687;23;20765;-86
2021/06/18 09:06:27;;;;;;;10.10;7.23;;;41.40;35.70;;;;;;6187499;23;20395;-86
2021/06/18 09:09:14;;;;;;;8.80;7.57;;;41.80;35.50;;;;;;6190503;23;20517;-86
2021/06/18 09:11:42;;;;;;;9.63;7.20;;;42.60;33.90;;;;;;6189663;23;20853;-87
2021/06/18 09:14:20;;;;;;;9.40;8.20;;;42.10;34.50;;;;;;6188822;23;20412;-87
2021/06/18 09:17:09;;;;;;;9.33;8.43;;;41.40;35.10;;;;;;6187497;23;20879;-87
2021/06/18 09:19:40;;;;;;;11.80;7.70;;;41.80;34.80;;;;;;6188696;23;20389;-86
2021/06/18 09:22:09;;;;;;;9.60;8.27;;;42.30;35.10;;;;;;6200078;23;20390;-86
2021/06/18 09:24:38;;;;;;;10.33;8.63;;;42.20;33.90;;;;;;6195231;23;20394;-85
2021/06/18 09:27:06;;;;;;;9.50;7.83;;;42.00;34.40;;;;;;6188055;23;20453;-86
2021/06/18 09:29:33;;;;;;;9.80;8.13;;;42.00;34.80;;;;;;6188159;23;20389;-86
2021/06/18 09:32:03;;;;;;;8.83;7.57;;;41.60;35.10;;;;;;6196949;23;20406;-86
2021/06/18 09:34:46;;;;;;;9.33;8.33;;;41.80;35.30;;;;;;6188405;23;20783;-86
2021/06/18 09:37:18;;;;;;;9.53;7.90;;;42.40;34.60;;;;;;6189158;23;20462;-86
2021/06/18 09:39:59;;;;;;;14.00;9.00;;;42.80;33.80;;;;;;6188456;23;20390;-87
2021/06/18 09:42:36;;;;;;;8.93;8.03;;;43.30;32.80;;;;;;6190118;23;20394;-90
2021/06/18 09:48:44;;;;;;;8.53;7.83;;;42.00;32.60;;;;;;6124038;23;20414;-89
2021/06/18 09:51:17;;;;;;;10.60;8.53;;;41.80;33.90;;;;;;6188238;23;20414;-89
2021/06/18 09:53:47;;;;;;;14.20;8.07;;;42.50;33.40;;;;;;6189110;23;20465;-89
2021/06/18 09:56:45;;;;;;;8.73;7.37;;;43.90;32.00;;;;;;6187762;23;20402;-90
2021/06/18 09:59:43;;;;;;;;;;;;;;;;;;;;;
2021/06/18 10:02:22;;;;;;;8.20;7.40;;;44.70;30.80;;;;;;6200807;23;20382;-88
2021/06/18 10:05:13;;;;;;;7.67;6.97;;;45.00;29.80;;;;;;6190829;23;20413;-90
2021/06/18 10:07:55;;;;;;;8.60;7.37;;;44.90;29.70;;;;;;6203504;23;20434;-89
2021/06/18 10:10:41;;;;;;;9.17;7.07;;;45.60;29.10;;;;;;6198160;23;20857;-89
2021/06/18 10:19:32;;;;;;;11.17;8.37;;;45.20;29.60;;;;;;6188145;23;20908;-90
2021/06/18 10:28:27;;;;;;;8.37;7.03;;;45.30;29.80;;;;;;6189291;23;20453;-89
2021/06/18 10:30:57;;;;;;;9.53;7.17;;;45.90;28.90;;;;;;6231158;23;20393;-91
2021/06/18 10:33:35;;;;;;;7.10;6.33;;;46.90;27.90;;;;;;6229809;23;20432;-90
2021/06/18 10:36:25;;;;;;;7.90;6.30;;;47.20;27.00;;;;;;6237090;22;20405;-88
2021/06/18 10:39:12;;;;;;;7.40;6.50;;;46.60;26.80;;;;;;6201703;23;20501;-89
2021/06/18 10:41:53;;;;;;;7.90;7.10;;;46.90;27.00;;;;;;6193143;23;20418;-91
2021/06/18 10:47:58;;;;;;;10.67;5.63;;;47.30;26.80;;;;;;6189780;23;20424;-89
2021/06/18 10:50:52;;;;;;;8.77;6.33;;;47.50;24.60;;;;;;6194121;23;20410;-90
2021/06/18 10:53:53;;;;;;;7.00;4.70;;;46.90;24.80;;;;;;6211267;23;20418;-88
2021/06/18 10:57:00;;;;;;;6.93;6.23;;;47.00;24.40;;;;;;6202218;23;20441;-90
2021/06/18 11:02:43;;;;;;;5.40;4.87;;;46.40;25.80;;;;;;6202744;23;20807;-90
2021/06/18 11:05:46;;;;;;;;;;;;;;;;;;;;;
2021/06/18 11:08:51;;;;;;;8.07;7.27;;;45.30;26.10;;;;;;6188887;23;20424;-90
2021/06/18 11:11:53;;;;;;;6.00;5.40;;;45.50;26.40;;;;;;6189300;23;20432;-90
2021/06/18 11:27:35;;;;;;;9.63;6.77;;;47.10;25.40;;;;;;6212303;23;20401;-90
2021/06/18 11:30:36;;;;;;;9.33;6.50;;;47.80;24.90;;;;;;6212453;23;20420;-89
2021/06/18 11:40:33;;;;;;;7.00;6.30;;;45.40;27.40;;;;;;6176263;23;20817;-91
2021/06/18 11:43:06;;;;;;;6.87;6.27;;;44.90;27.50;;;;;;6121047;23;20418;-90
2021/06/18 11:45:52;;;;;;;8.77;6.00;;;45.00;27.90;;;;;;6199412;23;20394;-89
2021/06/18 11:51:29;;;;;;;8.47;5.93;;;46.80;26.10;;;;;;6183017;23;20402;-90
2021/06/18 11:54:04;;;;;;;6.87;6.17;;;47.40;24.90;;;;;;6188564;23;20461;-91
2021/06/18 11:56:50;;;;;;;9.00;6.73;;;46.40;25.90;;;;;;6188979;23;20425;-90
2021/06/18 11:59:29;;;;;;;6.47;5.80;;;45.90;26.20;;;;;;6190051;23;20517;-90
2021/06/18 12:02:14;;;;;;;6.90;6.10;;;46.30;26.10;;;;;;6194235;23;20481;-91
2021/06/18 12:05:08;;;;;;;7.40;6.33;;;46.40;25.70;;;;;;6211920;23;20413;-90
2021/06/18 12:08:02;;;;;;;6.57;5.80;;;46.30;25.80;;;;;;6195731;23;20492;-91
2021/06/18 12:10:51;;;;;;;7.70;6.97;;;46.00;26.30;;;;;;6192419;23;20394;-90
2021/06/18 12:13:49;;;;;;;7.30;6.40;;;45.00;27.30;;;;;;6191318;23;20519;-90
2021/06/18 12:23:23;;;;;;;7.57;5.87;;;47.00;25.90;;;;;;6148247;23;20417;-90
2021/06/18 12:33:09;;;;;;;8.43;5.73;;;47.20;24.50;;;;;;6083411;23;20475;-91
2021/06/18 12:35:45;;;;;;;5.83;5.07;;;47.40;24.40;;;;;;6137612;23;20414;-91
2021/06/18 12:38:55;;;;;;;;;;;;;;;;;;;;;
2021/06/18 12:41:30;;;;;;;6.17;5.57;;;47.10;24.10;;;;;;6192330;23;20424;-90
2021/06/18 12:44:16;;;;;;;8.93;6.20;;;45.70;24.60;;;;;;6199910;23;20420;-90
2021/06/18 12:47:30;;;;;;;6.27;5.30;;;45.60;25.60;;;;;;6200438;23;20436;-90
2021/06/18 12:50:27;;;;;;;5.90;5.30;;;46.00;25.30;;;;;;6081866;23;20428;-91
2021/06/18 13:02:14;;;;;;;6.37;5.73;;;45.30;25.70;;;;;;6225882;23;20429;-90
2021/06/18 13:05:40;;;;;;;6.07;5.47;;;45.20;25.70;;;;;;6228195;23;20408;-90
2021/06/18 13:23:18;;;;;;;5.57;5.07;;;45.50;25.70;;;;;;6058124;23;20776;-91
2021/06/18 13:29:45;;;;;;;6.77;5.97;;;47.20;24.40;;;;;;6100349;23;20444;-90
2021/06/18 13:35:58;;;;;;;5.67;4.97;;;45.70;23.90;;;;;;6139614;23;20446;-92
2021/06/18 13:51:00;;;;;;;5.70;4.60;;;43.20;25.90;;;;;;6183651;23;20412;-90
2021/06/18 13:54:15;;;;;;;7.20;4.60;;;43.50;25.50;;;;;;6188498;23;20436;-91
2021/06/18 13:56:44;;;;;;;6.00;5.40;;;43.80;24.90;;;;;;6189824;23;20410;-90
2021/06/18 13:59:11;;;;;;;5.53;4.67;;;43.60;25.30;;;;;;6197005;23;20470;-90
2021/06/18 14:01:39;;;;;;;17.23;4.70;;;44.30;25.30;;;;;;6198868;23;20397;-91
2021/06/18 14:13:34;;;;;;;8.20;4.10;;;42.40;23.30;;;;;;6120291;23;20817;-91
2021/06/18 14:19:58;;;;;;;7.90;5.13;;;41.00;24.70;;;;;;6195244;23;20434;-90
2021/06/18 14:23:06;;;;;;;9.47;4.87;;;41.40;24.80;;;;;;6193066;23;20420;-91
2021/06/18 14:29:06;;;;;;;6.13;4.20;;;40.80;24.70;;;;;;6145393;23;20454;-90
2021/06/18 14:32:33;;;;;;;8.13;4.57;;;40.30;25.50;;;;;;6243302;23;20364;-90
2021/06/18 14:35:00;;;;;;;5.90;5.30;;;39.90;25.90;;;;;;6006180;23;20461;-87
2021/06/18 14:37:27;;;;;;;10.60;4.67;;;39.40;32.00;;;;;;6121626;23;20500;-90
2021/06/18 14:39:55;;;;;;;8.83;4.87;;;38.80;27.20;;;;;;6187756;23;20394;-87
2021/06/18 14:42:22;;;;;;;6.37;4.77;;;37.90;27.30;;;;;;6187161;23;20785;-88
2021/06/18 14:44:50;;;;;;;7.50;4.77;;;37.60;28.60;;;;;;6187867;23;20382;-91
2021/06/18 14:47:17;;;;;;;6.23;5.13;;;37.30;28.80;;;;;;6188045;23;20410;-91
2021/06/18 14:49:45;;;;;;;9.73;6.83;;;37.10;28.80;;;;;;6187764;23;20429;-91
2021/06/18 14:52:12;;;;;;;8.17;5.20;;;36.60;29.00;;;;;;6204682;23;20445;-90
2021/06/18 14:54:40;;;;;;;9.07;4.70;;;36.60;29.30;;;;;;6203625;23;20437;-90
2021/06/18 14:57:10;;;;;;;6.73;4.63;;;36.60;29.60;;;;;;6187243;23;20417;-91
2021/06/18 14:59:48;;;;;;;5.97;4.40;;;36.80;29.60;;;;;;6190626;23;20394;-91
2021/06/18 15:05:20;;;;;;;6.83;4.93;;;36.80;29.50;;;;;;6158198;23;20763;-90
2021/06/18 15:07:50;;;;;;;8.97;5.50;;;36.50;30.00;;;;;;6189433;23;20434;-91